Time,TemperatureF,DewpointF,PressureIn,WindDirection,WindDirectionDegrees,WindSpeedMPH,WindSpeedGustMPH,Humidity,HourlyPrecipIn,Conditions,Clouds,dailyrainin,SolarRadiationWatts/m^2,SoftwareType,DateUTC
2013-09-19 00:00:00,55.9,47.0,30.13,SE,130,2.0,3.5,72,0.00,CLR,,0.00,0.0,WeatherDisplay:10.37,2013-09-19 04:00:00,
2013-09-19 00:01:00,55.9,47.0,30.13,SE,126,1.5,3.5,72,0.00,CLR,,0.00,0.0,WeatherDisplay:10.37,2013-09-19 04:01:00,
2013-09-19 00:03:00,55.9,47.0,30.13,ESE,107,0.5,2.3,72,0.00,CLR,,0.00,0.0,WeatherDisplay:10.37,2013-09-19 04:03:00,
2013-09-19 00:08:00,55.7,46.8,30.13,South,169,0.3,2.3,72,0.00,CLR,,0.00,0.0,WeatherDisplay:10.37,2013-09-19 04:08:00,
2013-09-19 00:09:00,55.7,46.8,30.14,South,169,0.0,1.2,72,0.00,CLR,,0.00,0.0,WeatherDisplay:10.37,2013-09-19 04:09:00,
2013-09-19 00:13:00,55.6,46.7,30.13,SE,138,0.2,2.3,72,0.00,CLR,,0.00,0.0,WeatherDisplay:10.37,2013-09-19 04:13:00,
2013-09-19 00:18:00,55.3,46.8,30.14,SSE,149,0.9,2.3,73,0.00,CLR,,0.00,0.0,WeatherDisplay:10.37,2013-09-19 04:18:00,
2013-09-19 00:23:00,55.5,46.6,30.14,SE,140,0.9,2.3,72,0.00,CLR,,0.00,0.0,WeatherDisplay:10.37,2013-09-19 04:23:00,
2013-09-19 00:28:00,55.2,46.7,30.14,SE,135,0.8,2.3,73,0.00,CLR,,0.00,0.0,WeatherDisplay:10.37,2013-09-19 04:28:00,
2013-09-19 00:33:00,55.3,46.8,30.14,ESE,119,0.8,3.5,73,0.00,CLR,,0.00,0.0,WeatherDisplay:10.37,2013-09-19 04:33:00,
2013-09-19 00:38:00,55.2,46.7,30.14,ESE,117,1.5,3.5,73,0.00,CLR,,0.00,0.0,WeatherDisplay:10.37,2013-09-19 04:38:00,
2013-09-19 00:43:00,55.1,46.6,30.14,ESE,115,1.4,3.5,73,0.00,CLR,,0.00,0.0,WeatherDisplay:10.37,2013-09-19 04:43:00,
2013-09-19 00:48:00,55.1,46.6,30.14,SE,135,2.4,4.6,73,0.00,CLR,,0.00,0.0,WeatherDisplay:10.37,2013-09-19 04:48:00,
2013-09-19 00:53:00,55.3,46.8,30.14,ESE,110,1.2,3.5,73,0.00,CLR,,0.00,0.0,WeatherDisplay:10.37,2013-09-19 04:53:00,
2013-09-19 00:58:00,55.0,46.5,30.14,SSE,157,1.9,3.5,73,0.00,CLR,,0.00,0.0,WeatherDisplay:10.37,2013-09-19 04:58:00,
2013-09-19 01:03:00,55.0,46.5,30.14,ESE,118,1.1,3.5,73,0.00,CLR,,0.00,0.0,WeatherDisplay:10.37,2013-09-19 05:03:00,
2013-09-19 01:08:00,54.7,46.6,30.13,ESE,116,1.2,3.5,74,0.00,CLR,,0.00,0.0,WeatherDisplay:10.37,2013-09-19 05:08:00,
2013-09-19 01:13:00,54.8,46.3,30.14,SSE,155,0.5,3.5,73,0.00,CLR,,0.00,0.0,WeatherDisplay:10.37,2013-09-19 05:13:00,
2013-09-19 01:18:00,54.7,46.6,30.14,ESE,111,2.2,3.5,74,0.00,CLR,,0.00,0.0,WeatherDisplay:10.37,2013-09-19 05:18:00,
2013-09-19 01:23:00,54.6,46.5,30.14,SE,140,1.1,3.5,74,0.00,CLR,,0.00,0.0,WeatherDisplay:10.37,2013-09-19 05:23:00,
2013-09-19 01:28:00,54.5,46.4,30.14,SSE,159,3.0,5.8,74,0.00,CLR,,0.00,0.0,WeatherDisplay:10.37,2013-09-19 05:28:00,
2013-09-19 01:33:00,54.4,46.3,30.14,SE,134,2.5,5.8,74,0.00,CLR,,0.00,0.0,WeatherDisplay:10.37,2013-09-19 05:33:00,
2013-09-19 01:38:00,54.5,46.4,30.14,SSE,159,2.3,5.0,74,0.00,CLR,,0.00,0.0,WeatherDisplay:10.37,2013-09-19 05:38:00,
2013-09-19 01:43:00,54.4,46.3,30.14,SE,138,3.4,5.0,74,0.00,CLR,,0.00,0.0,WeatherDisplay:10.37,2013-09-19 05:43:00,
2013-09-19 01:48:00,54.5,46.0,30.14,ESE,114,2.2,4.6,73,0.00,CLR,,0.00,0.0,WeatherDisplay:10.37,2013-09-19 05:48:00,
2013-09-19 01:53:00,54.2,46.1,30.14,East,100,1.9,5.0,74,0.00,CLR,,0.00,0.0,WeatherDisplay:10.37,2013-09-19 05:53:00,
2013-09-19 01:58:00,54.2,46.1,30.14,ESE,110,1.0,3.5,74,0.00,CLR,,0.00,0.0,WeatherDisplay:10.37,2013-09-19 05:58:00,
2013-09-19 02:03:00,54.1,46.0,30.14,ESE,110,1.0,3.5,74,0.00,CLR,,0.00,0.0,WeatherDisplay:10.37,2013-09-19 06:03:00,
2013-09-19 02:08:00,53.8,45.7,30.14,SE,146,0.7,4.6,74,0.00,CLR,,0.00,0.0,WeatherDisplay:10.37,2013-09-19 06:08:00,
2013-09-19 02:13:00,53.9,45.8,30.14,South,174,0.4,5.8,74,0.00,CLR,,0.00,0.0,WeatherDisplay:10.37,2013-09-19 06:13:00,
2013-09-19 02:18:00,53.6,45.9,30.14,SSE,159,1.6,3.5,75,0.00,CLR,,0.00,0.0,WeatherDisplay:10.37,2013-09-19 06:18:00,
2013-09-19 02:23:00,53.6,45.9,30.14,ESE,117,1.4,6.9,75,0.00,CLR,,0.00,0.0,WeatherDisplay:10.37,2013-09-19 06:23:00,
2013-09-19 02:28:00,53.7,46.0,30.14,ESE,121,0.2,2.3,75,0.00,CLR,,0.00,0.0,WeatherDisplay:10.37,2013-09-19 06:28:00,
2013-09-19 02:33:00,53.7,46.0,30.14,ESE,107,0.4,2.3,75,0.00,CLR,,0.00,0.0,WeatherDisplay:10.37,2013-09-19 06:33:00,
2013-09-19 02:38:00,53.5,46.1,30.13,SE,126,1.0,3.5,76,0.00,CLR,,0.00,0.0,WeatherDisplay:10.37,2013-09-19 06:38:00,
2013-09-19 02:43:00,53.4,46.0,30.13,SE,126,0.8,3.5,76,0.00,CLR,,0.00,0.0,WeatherDisplay:10.37,2013-09-19 06:43:00,
2013-09-19 02:48:00,53.3,45.9,30.13,SE,130,1.9,4.0,76,0.00,CLR,,0.00,0.0,WeatherDisplay:10.37,2013-09-19 06:48:00,
2013-09-19 02:53:00,53.5,46.1,30.13,ESE,115,1.4,3.5,76,0.00,CLR,,0.00,0.0,WeatherDisplay:10.37,2013-09-19 06:53:00,
2013-09-19 02:58:00,53.4,46.0,30.13,ESE,104,0.5,2.3,76,0.00,CLR,,0.00,0.0,WeatherDisplay:10.37,2013-09-19 06:58:00,
2013-09-19 03:03:00,53.3,46.3,30.12,ESE,123,1.0,3.0,77,0.00,CLR,,0.00,0.0,WeatherDisplay:10.37,2013-09-19 07:03:00,
2013-09-19 03:08:00,53.4,46.0,30.12,ESE,121,1.3,3.5,76,0.00,CLR,,0.00,0.0,WeatherDisplay:10.37,2013-09-19 07:08:00,
2013-09-19 03:13:00,53.3,45.9,30.12,ESE,106,0.1,2.3,76,0.00,CLR,,0.00,0.0,WeatherDisplay:10.37,2013-09-19 07:13:00,
2013-09-19 03:18:00,53.1,46.1,30.12,ESE,107,0.9,2.3,77,0.00,CLR,,0.00,0.0,WeatherDisplay:10.37,2013-09-19 07:18:00,
2013-09-19 03:23:00,53.1,46.1,30.12,ESE,107,0.1,1.2,77,0.00,CLR,,0.00,0.0,WeatherDisplay:10.37,2013-09-19 07:23:00,
2013-09-19 03:28:00,53.1,46.1,30.12,ESE,107,0.4,1.0,77,0.00,CLR,,0.00,0.0,WeatherDisplay:10.37,2013-09-19 07:28:00,
2013-09-19 03:33:00,53.0,46.0,30.12,ESE,107,0.2,2.3,77,0.00,CLR,,0.00,0.0,WeatherDisplay:10.37,2013-09-19 07:33:00,
2013-09-19 03:38:00,52.8,45.8,30.12,SE,144,0.0,1.2,77,0.00,CLR,,0.00,0.0,WeatherDisplay:10.37,2013-09-19 07:38:00,
2013-09-19 03:43:00,52.6,45.9,30.13,SE,144,0.3,1.2,78,0.00,CLR,,0.00,0.0,WeatherDisplay:10.37,2013-09-19 07:43:00,
2013-09-19 03:48:00,52.3,46.0,30.12,SE,137,0.6,2.3,79,0.00,CLR,,0.00,0.0,WeatherDisplay:10.37,2013-09-19 07:48:00,
2013-09-19 04:32:00,51.2,45.9,30.13,ESE,116,0.5,3.5,82,0.00,CLR,,0.00,0.0,WeatherDisplay:10.37,2013-09-19 08:32:00,
2013-09-19 04:37:00,51.0,45.7,30.13,ESE,103,1.1,3.5,82,0.00,CLR,,0.00,0.0,WeatherDisplay:10.37,2013-09-19 08:37:00,
2013-09-19 04:42:00,51.0,45.7,30.13,ESE,121,0.7,3.5,82,0.00,CLR,,0.00,0.0,WeatherDisplay:10.37,2013-09-19 08:42:00,
2013-09-19 04:47:00,51.2,45.6,30.13,ESE,121,0.0,1.2,81,0.00,CLR,,0.00,0.0,WeatherDisplay:10.37,2013-09-19 08:47:00,
2013-09-19 04:52:00,51.1,45.5,30.13,ESE,121,0.5,1.2,81,0.00,CLR,,0.00,0.0,WeatherDisplay:10.37,2013-09-19 08:52:00,
2013-09-19 04:57:00,51.1,45.5,30.13,ESE,121,0.1,1.2,81,0.00,CLR,,0.00,0.0,WeatherDisplay:10.37,2013-09-19 08:57:00,
2013-09-19 05:02:00,51.1,45.5,30.13,ESE,121,1.1,2.3,81,0.00,CLR,,0.00,0.0,WeatherDisplay:10.37,2013-09-19 09:02:00,
2013-09-19 05:07:00,50.9,45.6,30.13,SE,127,0.7,2.3,82,0.00,CLR,,0.00,0.0,WeatherDisplay:10.37,2013-09-19 09:07:00,
2013-09-19 05:12:00,50.8,45.5,30.13,SE,128,0.6,2.3,82,0.00,CLR,,0.00,0.0,WeatherDisplay:10.37,2013-09-19 09:12:00,
2013-09-19 05:17:00,50.9,45.6,30.13,SSE,155,0.8,2.3,82,0.00,CLR,,0.00,0.0,WeatherDisplay:10.37,2013-09-19 09:17:00,
2013-09-19 05:22:00,51.0,45.7,30.13,SE,131,0.1,1.2,82,0.00,CLR,,0.00,0.0,WeatherDisplay:10.37,2013-09-19 09:22:00,
2013-09-19 05:27:00,50.9,45.6,30.13,SE,131,0.1,1.2,82,0.00,CLR,,0.00,0.0,WeatherDisplay:10.37,2013-09-19 09:27:00,
2013-09-19 05:32:00,50.6,45.6,30.13,SE,128,0.5,1.2,83,0.00,CLR,,0.00,0.0,WeatherDisplay:10.37,2013-09-19 09:32:00,
2013-09-19 05:37:00,50.2,45.6,30.13,SSE,160,0.2,1.2,84,0.00,CLR,,0.00,0.0,WeatherDisplay:10.37,2013-09-19 09:37:00,
2013-09-19 05:42:00,50.1,45.5,30.13,SE,146,1.5,3.5,84,0.00,CLR,,0.00,0.0,WeatherDisplay:10.37,2013-09-19 09:42:00,
2013-09-19 05:47:00,50.1,45.5,30.13,SE,132,0.1,1.2,84,0.00,CLR,,0.00,0.0,WeatherDisplay:10.37,2013-09-19 09:47:00,
2013-09-19 05:52:00,49.9,45.6,30.13,ESE,113,0.5,2.3,85,0.00,CLR,,0.00,0.0,WeatherDisplay:10.37,2013-09-19 09:52:00,
2013-09-19 05:57:00,49.8,45.5,30.13,SSE,156,0.3,1.2,85,0.00,CLR,,0.00,0.0,WeatherDisplay:10.37,2013-09-19 09:57:00,
2013-09-19 06:02:00,49.6,45.6,30.13,SE,144,0.0,1.2,86,0.00,CLR,,0.00,0.0,WeatherDisplay:10.37,2013-09-19 10:02:00,
2013-09-19 06:07:00,49.5,45.5,30.13,SSE,158,0.7,2.3,86,0.00,CLR,,0.00,0.0,WeatherDisplay:10.37,2013-09-19 10:07:00,
2013-09-19 06:12:00,49.5,45.5,30.13,SSE,158,0.2,2.0,86,0.00,CLR,,0.00,0.0,WeatherDisplay:10.37,2013-09-19 10:12:00,
2013-09-19 06:17:00,49.3,45.3,30.13,SSE,158,0.0,0.0,86,0.00,OVC,,0.00,0.0,WeatherDisplay:10.37,2013-09-19 10:17:00,
2013-09-19 06:22:00,49.2,45.5,30.13,SSE,158,0.0,0.0,87,0.00,OVC,,0.00,0.0,WeatherDisplay:10.37,2013-09-19 10:22:00,
2013-09-19 06:27:00,49.0,45.3,30.13,SSE,158,0.3,2.3,87,0.00,OVC,,0.00,0.0,WeatherDisplay:10.37,2013-09-19 10:27:00,
2013-09-19 06:32:00,48.9,45.2,30.13,SSE,158,0.0,0.0,87,0.00,OVC,,0.00,0.0,WeatherDisplay:10.37,2013-09-19 10:32:00,
2013-09-19 06:37:00,48.8,45.1,30.14,SSE,158,0.0,0.0,87,0.00,OVC,,0.00,0.0,WeatherDisplay:10.37,2013-09-19 10:37:00,
2013-09-19 06:42:00,48.7,45.3,30.14,SSE,158,0.0,1.2,88,0.00,OVC,,0.00,0.0,WeatherDisplay:10.37,2013-09-19 10:42:00,
2013-09-19 06:47:00,48.6,45.2,30.14,SSE,158,0.2,1.2,88,0.00,OVC,,0.00,5.0,WeatherDisplay:10.37,2013-09-19 10:47:00,
2013-09-19 06:52:00,48.5,45.1,30.14,SSE,159,0.0,1.2,88,0.00,OVC,,0.00,7.0,WeatherDisplay:10.37,2013-09-19 10:52:00,
2013-09-19 06:57:00,48.5,45.1,30.14,SE,132,0.8,3.5,88,0.00,OVC,,0.00,9.0,WeatherDisplay:10.37,2013-09-19 10:57:00,
2013-09-19 07:02:00,48.6,45.5,30.14,SE,132,0.0,1.2,89,0.00,OVC,,0.00,11.0,WeatherDisplay:10.37,2013-09-19 11:02:00,
2013-09-19 07:07:00,48.6,45.2,30.15,SE,133,0.0,0.0,88,0.00,OVC,,0.00,12.0,WeatherDisplay:10.37,2013-09-19 11:07:00,
2013-09-19 07:12:00,48.4,45.3,30.15,SE,133,0.5,1.2,89,0.00,OVC,,0.00,14.0,WeatherDisplay:10.37,2013-09-19 11:12:00,
2013-09-19 07:17:00,48.4,45.3,30.15,SE,132,0.5,1.2,89,0.00,OVC,,0.00,16.0,WeatherDisplay:10.37,2013-09-19 11:17:00,
2013-09-19 07:22:00,48.6,45.5,30.15,ESE,119,0.9,2.3,89,0.00,OVC,,0.00,19.0,WeatherDisplay:10.37,2013-09-19 11:22:00,
2013-09-19 07:27:00,48.9,45.8,30.14,SE,133,0.9,2.3,89,0.00,CLR,,0.00,28.0,WeatherDisplay:10.37,2013-09-19 11:27:00,
2013-09-19 07:32:00,49.4,46.0,30.14,SE,134,1.5,2.3,88,0.00,CLR,,0.00,39.0,WeatherDisplay:10.37,2013-09-19 11:32:00,
2013-09-19 07:37:00,50.1,46.4,30.14,SE,128,0.9,3.5,87,0.00,CLR,,0.00,51.0,WeatherDisplay:10.37,2013-09-19 11:37:00,
2013-09-19 07:42:00,50.6,46.6,30.14,SSE,154,0.8,3.5,86,0.00,CLR,,0.00,65.0,WeatherDisplay:10.37,2013-09-19 11:42:00,
2013-09-19 07:47:00,51.0,47.0,30.14,South,169,1.2,3.0,86,0.00,CLR,,0.00,81.0,WeatherDisplay:10.37,2013-09-19 11:47:00,
2013-09-19 07:52:00,51.5,47.1,30.14,SSE,165,0.2,2.3,85,0.00,CLR,,0.00,97.0,WeatherDisplay:10.37,2013-09-19 11:52:00,
2013-09-19 07:57:00,51.9,47.2,30.14,SE,132,0.8,3.0,84,0.00,CLR,,0.00,116.0,WeatherDisplay:10.37,2013-09-19 11:57:00,
2013-09-19 08:02:00,52.3,47.6,30.14,SSE,157,1.2,3.5,84,0.00,CLR,,0.00,135.0,WeatherDisplay:10.37,2013-09-19 12:02:00,
2013-09-19 08:07:00,52.6,47.9,30.14,ESE,106,0.1,1.2,84,0.00,CLR,,0.00,151.0,WeatherDisplay:10.37,2013-09-19 12:07:00,
2013-09-19 08:12:00,53.0,48.3,30.14,SE,140,0.1,1.2,84,0.00,CLR,,0.00,171.0,WeatherDisplay:10.37,2013-09-19 12:12:00,
2013-09-19 08:17:00,53.4,48.0,30.14,SE,140,0.6,2.0,82,0.00,CLR,,0.00,190.0,WeatherDisplay:10.37,2013-09-19 12:17:00,
2013-09-19 08:23:00,53.9,48.5,30.14,SSE,148,0.3,2.3,82,0.00,CLR,,0.00,213.0,WeatherDisplay:10.37,2013-09-19 12:23:00,
2013-09-19 08:28:00,54.2,48.5,30.14,SSE,167,1.2,3.5,81,0.00,CLR,,0.00,230.0,WeatherDisplay:10.37,2013-09-19 12:28:00,
2013-09-19 08:33:00,54.7,49.0,30.14,SE,127,1.2,3.5,81,0.00,CLR,,0.00,246.0,WeatherDisplay:10.37,2013-09-19 12:33:00,
2013-09-19 08:38:00,55.1,49.0,30.13,SE,144,1.4,4.0,80,0.00,CLR,,0.00,262.0,WeatherDisplay:10.37,2013-09-19 12:38:00,
2013-09-19 08:43:00,55.7,50.0,30.13,SE,133,1.1,5.0,81,0.00,CLR,,0.00,279.0,WeatherDisplay:10.37,2013-09-19 12:43:00,
2013-09-19 08:48:00,56.2,50.1,30.13,SSE,153,0.6,2.3,80,0.00,CLR,,0.00,295.0,WeatherDisplay:10.37,2013-09-19 12:48:00,
2013-09-19 08:53:00,56.6,50.2,30.13,ESE,123,0.5,3.5,79,0.00,CLR,,0.00,311.0,WeatherDisplay:10.37,2013-09-19 12:53:00,
2013-09-19 08:58:00,57.2,51.4,30.13,SSE,153,0.6,2.3,81,0.00,CLR,,0.00,327.0,WeatherDisplay:10.37,2013-09-19 12:58:00,
2013-09-19 09:03:00,57.7,51.2,30.13,ESE,119,0.0,1.0,79,0.00,CLR,,0.00,341.0,WeatherDisplay:10.37,2013-09-19 13:03:00,
2013-09-19 09:08:00,57.8,50.6,30.13,SSE,148,1.0,3.0,77,0.00,CLR,,0.00,357.0,WeatherDisplay:10.37,2013-09-19 13:08:00,
2013-09-19 09:13:00,58.3,51.5,30.13,SSE,151,0.7,3.5,78,0.00,CLR,,0.00,373.0,WeatherDisplay:10.37,2013-09-19 13:13:00,
2013-09-19 09:18:00,58.7,52.2,30.14,SSE,151,0.1,1.2,79,0.00,CLR,,0.00,388.0,WeatherDisplay:10.37,2013-09-19 13:18:00,
2013-09-19 09:23:00,58.9,51.7,30.13,SSE,156,0.4,1.2,77,0.00,CLR,,0.00,404.0,WeatherDisplay:10.37,2013-09-19 13:23:00,
2013-09-19 09:28:00,59.4,52.5,30.13,SSE,168,0.1,1.2,78,0.00,CLR,,0.00,420.0,WeatherDisplay:10.37,2013-09-19 13:28:00,
2013-09-19 09:33:00,59.9,52.0,30.13,SSE,148,1.0,2.3,75,0.00,CLR,,0.00,434.0,WeatherDisplay:10.37,2013-09-19 13:33:00,
2013-09-19 09:38:00,60.5,51.8,30.13,South,171,1.2,3.5,73,0.00,CLR,,0.00,450.0,WeatherDisplay:10.37,2013-09-19 13:38:00,
2013-09-19 09:43:00,61.0,52.7,30.13,South,171,0.4,2.3,74,0.00,CLR,,0.00,464.0,WeatherDisplay:10.37,2013-09-19 13:43:00,
2013-09-19 09:48:00,61.7,54.1,30.13,South,171,0.3,1.2,76,0.00,CLR,,0.00,478.0,WeatherDisplay:10.37,2013-09-19 13:48:00,
2013-09-19 09:53:00,62.1,54.1,30.13,ESE,111,0.1,1.2,75,0.00,CLR,,0.00,492.0,WeatherDisplay:10.37,2013-09-19 13:53:00,
2013-09-19 09:58:00,62.1,52.2,30.12,South,172,1.7,4.0,70,0.00,CLR,,0.00,508.0,WeatherDisplay:10.37,2013-09-19 13:58:00,
2013-09-19 10:03:00,62.6,53.4,30.12,South,171,0.5,1.2,72,0.00,CLR,,0.00,519.0,WeatherDisplay:10.37,2013-09-19 14:03:00,
2013-09-19 10:08:00,63.0,54.6,30.12,South,172,0.0,1.2,74,0.00,CLR,,0.00,533.0,WeatherDisplay:10.37,2013-09-19 14:08:00,
2013-09-19 10:13:00,63.5,53.9,30.12,South,172,0.3,1.2,71,0.00,CLR,,0.00,547.0,WeatherDisplay:10.37,2013-09-19 14:13:00,
2013-09-19 10:18:00,63.6,53.2,30.12,WSW,252,1.2,3.5,69,0.00,CLR,,0.00,559.0,WeatherDisplay:10.37,2013-09-19 14:18:00,
2013-09-19 10:23:00,64.5,55.7,30.12,WSW,252,0.2,1.2,73,0.00,CLR,,0.00,573.0,WeatherDisplay:10.37,2013-09-19 14:23:00,
2013-09-19 10:28:00,64.6,54.6,30.12,WSW,243,1.4,3.5,70,0.00,CLR,,0.00,584.0,WeatherDisplay:10.37,2013-09-19 14:28:00,
2013-09-19 10:33:00,65.2,55.2,30.12,SSE,148,0.3,2.3,70,0.00,CLR,,0.00,594.0,WeatherDisplay:10.37,2013-09-19 14:33:00,
2013-09-19 10:38:00,65.5,54.2,30.12,SW,215,0.5,2.3,67,0.00,CLR,,0.00,605.0,WeatherDisplay:10.37,2013-09-19 14:38:00,
2013-09-19 10:43:00,65.7,54.4,30.12,SSW,193,0.2,2.3,67,0.00,CLR,,0.00,615.0,WeatherDisplay:10.37,2013-09-19 14:43:00,
2013-09-19 10:48:00,66.2,54.9,30.12,SSW,198,0.7,3.0,67,0.00,CLR,,0.00,629.0,WeatherDisplay:10.37,2013-09-19 14:48:00,
2013-09-19 10:53:00,65.8,52.0,30.12,South,189,0.1,1.2,61,0.00,CLR,,0.00,638.0,WeatherDisplay:10.37,2013-09-19 14:53:00,
2013-09-19 10:58:00,65.9,49.8,30.12,West,267,1.1,2.3,56,0.00,CLR,,0.00,647.0,WeatherDisplay:10.37,2013-09-19 14:58:00,
2013-09-19 11:03:00,65.7,49.6,30.12,North,355,0.5,2.3,56,0.00,CLR,,0.00,657.0,WeatherDisplay:10.37,2013-09-19 15:03:00,
2013-09-19 11:08:00,66.6,50.4,30.12,NW,316,0.0,1.2,56,0.00,CLR,,0.00,666.0,WeatherDisplay:10.37,2013-09-19 15:08:00,
2013-09-19 11:13:00,67.0,52.2,30.12,West,280,0.9,2.3,59,0.00,CLR,,0.00,677.0,WeatherDisplay:10.37,2013-09-19 15:13:00,
2013-09-19 11:18:00,67.2,53.3,30.12,NNW,334,0.0,0.0,61,0.00,CLR,,0.00,684.0,WeatherDisplay:10.37,2013-09-19 15:18:00,
2013-09-19 11:23:00,67.1,54.5,30.12,NW,305,1.0,3.5,64,0.00,CLR,,0.00,691.0,WeatherDisplay:10.37,2013-09-19 15:23:00,
2013-09-19 11:28:00,67.3,56.4,30.12,ESE,107,0.4,2.0,68,0.00,CLR,,0.00,700.0,WeatherDisplay:10.37,2013-09-19 15:28:00,
2013-09-19 11:33:00,67.7,55.9,30.12,WNW,294,3.2,4.6,66,0.00,CLR,,0.00,707.0,WeatherDisplay:10.37,2013-09-19 15:33:00,
2013-09-19 11:38:00,67.9,57.8,30.12,NW,305,1.8,3.0,70,0.00,CLR,,0.00,715.0,WeatherDisplay:10.37,2013-09-19 15:38:00,
2013-09-19 11:43:00,68.0,56.6,30.12,NW,313,0.1,1.2,67,0.00,CLR,,0.00,719.0,WeatherDisplay:10.37,2013-09-19 15:43:00,
2013-09-19 11:48:00,68.1,57.1,30.12,NW,313,0.6,3.0,68,0.00,CLR,,0.00,726.0,WeatherDisplay:10.37,2013-09-19 15:48:00,
2013-09-19 11:53:00,68.2,56.8,30.12,NW,315,2.3,5.0,67,0.00,CLR,,0.00,731.0,WeatherDisplay:10.37,2013-09-19 15:53:00,
2013-09-19 11:58:00,67.9,55.3,30.12,NW,306,1.4,3.5,64,0.00,CLR,,0.00,738.0,WeatherDisplay:10.37,2013-09-19 15:58:00,
2013-09-19 12:03:00,67.9,55.3,30.12,NW,326,2.9,4.6,64,0.00,CLR,,0.00,745.0,WeatherDisplay:10.37,2013-09-19 16:03:00,
2013-09-19 12:08:00,68.1,57.1,30.12,North,9,1.1,4.0,68,0.00,CLR,,0.00,749.0,WeatherDisplay:10.37,2013-09-19 16:08:00,
2013-09-19 12:13:00,68.3,55.6,30.12,WNW,289,0.5,4.6,64,0.00,CLR,,0.00,756.0,WeatherDisplay:10.37,2013-09-19 16:13:00,
2013-09-19 12:18:00,68.7,55.2,30.11,NNW,335,1.1,3.5,62,0.00,CLR,,0.00,759.0,WeatherDisplay:10.37,2013-09-19 16:18:00,
2013-09-19 12:23:00,68.6,55.9,30.11,NNW,336,0.0,1.2,64,0.00,CLR,,0.00,765.0,WeatherDisplay:10.37,2013-09-19 16:23:00,
2013-09-19 12:28:00,68.8,55.2,30.11,NW,311,0.4,2.0,62,0.00,CLR,,0.00,766.0,WeatherDisplay:10.37,2013-09-19 16:28:00,
2013-09-19 12:33:00,69.4,56.3,30.11,NNW,348,0.8,2.0,63,0.00,CLR,,0.00,770.0,WeatherDisplay:10.37,2013-09-19 16:33:00,
2013-09-19 12:38:00,69.3,55.7,30.11,NW,324,1.6,3.0,62,0.00,CLR,,0.00,772.0,WeatherDisplay:10.37,2013-09-19 16:38:00,
2013-09-19 12:43:00,69.6,55.6,30.11,West,272,1.0,3.5,61,0.00,CLR,,0.00,775.0,WeatherDisplay:10.37,2013-09-19 16:43:00,
2013-09-19 12:48:00,69.7,55.6,30.11,NW,325,0.3,2.3,61,0.00,CLR,,0.00,777.0,WeatherDisplay:10.37,2013-09-19 16:48:00,
2013-09-19 12:53:00,70.2,57.9,30.11,NW,313,0.1,1.2,65,0.00,CLR,,0.00,779.0,WeatherDisplay:10.37,2013-09-19 16:53:00,
2013-09-19 12:58:00,70.6,56.5,30.10,WSW,258,1.5,3.5,61,0.00,CLR,,0.00,779.0,WeatherDisplay:10.37,2013-09-19 16:58:00,
2013-09-19 13:03:00,70.5,56.4,30.10,North,349,1.9,4.0,61,0.00,CLR,,0.00,780.0,WeatherDisplay:10.37,2013-09-19 17:03:00,
2013-09-19 13:08:00,70.0,55.0,30.10,North,349,0.9,3.5,59,0.00,CLR,,0.00,780.0,WeatherDisplay:10.37,2013-09-19 17:08:00,
2013-09-19 13:13:00,70.4,55.4,30.09,WNW,288,1.8,3.5,59,0.00,CLR,,0.00,779.0,WeatherDisplay:10.37,2013-09-19 17:13:00,
2013-09-19 13:18:00,70.7,56.1,30.10,WNW,294,0.5,2.3,60,0.00,CLR,,0.00,779.0,WeatherDisplay:10.37,2013-09-19 17:18:00,
2013-09-19 13:23:00,70.8,55.8,30.09,WNW,292,0.5,2.3,59,0.00,CLR,,0.00,777.0,WeatherDisplay:10.37,2013-09-19 17:23:00,
2013-09-19 13:28:00,71.9,58.6,30.09,South,188,0.6,2.3,63,0.00,CLR,,0.00,777.0,WeatherDisplay:10.37,2013-09-19 17:28:00,
2013-09-19 13:33:00,71.9,58.2,30.09,North,11,1.2,3.0,62,0.00,CLR,,0.00,775.0,WeatherDisplay:10.37,2013-09-19 17:33:00,
2013-09-19 13:38:00,71.6,56.5,30.08,WNW,297,0.1,2.3,59,0.00,CLR,,0.00,775.0,WeatherDisplay:10.37,2013-09-19 17:38:00,
2013-09-19 13:47:00,72.4,58.2,30.08,WNW,300,1.4,3.5,61,0.00,CLR,,0.00,770.0,WeatherDisplay:10.37,2013-09-19 17:47:00,
2013-09-19 13:54:00,72.3,56.7,30.08,WNW,300,0.7,1.2,58,0.00,CLR,,0.00,766.0,WeatherDisplay:10.37,2013-09-19 17:54:00,
2013-09-19 13:59:00,72.7,57.5,30.08,SSW,192,0.2,1.2,59,0.00,CLR,,0.00,758.0,WeatherDisplay:10.37,2013-09-19 17:59:00,
2013-09-19 14:04:00,72.5,55.9,30.08,NNW,345,0.1,1.2,56,0.00,CLR,,0.00,752.0,WeatherDisplay:10.37,2013-09-19 18:04:00,
2013-09-19 14:09:00,72.3,55.7,30.07,NW,313,1.2,3.5,56,0.00,CLR,,0.00,747.0,WeatherDisplay:10.37,2013-09-19 18:09:00,
2013-09-19 14:14:00,72.3,55.7,30.07,North,360,0.4,3.5,56,0.00,CLR,,0.00,744.0,WeatherDisplay:10.37,2013-09-19 18:14:00,
2013-09-19 14:19:00,72.3,55.7,30.07,SSW,194,0.9,2.3,56,0.00,CLR,,0.00,737.0,WeatherDisplay:10.37,2013-09-19 18:19:00,
2013-09-19 14:24:00,73.1,58.4,30.06,West,275,0.6,2.0,60,0.00,CLR,,0.00,728.0,WeatherDisplay:10.37,2013-09-19 18:24:00,
2013-09-19 14:29:00,73.0,55.4,30.06,NW,317,0.2,1.2,54,0.00,CLR,,0.00,724.0,WeatherDisplay:10.37,2013-09-19 18:29:00,
2013-09-19 14:34:00,73.0,57.8,30.06,NW,317,0.2,1.2,59,0.00,CLR,,0.00,714.0,WeatherDisplay:10.37,2013-09-19 18:34:00,
2013-09-19 14:39:00,72.8,55.2,30.06,NW,320,0.3,1.2,54,0.00,CLR,,0.00,708.0,WeatherDisplay:10.37,2013-09-19 18:39:00,
2013-09-19 14:44:00,73.1,58.4,30.05,ESE,115,1.4,3.5,60,0.00,CLR,,0.00,701.0,WeatherDisplay:10.37,2013-09-19 18:44:00,
2013-09-19 14:49:00,73.8,56.6,30.05,ESE,123,0.3,2.0,55,0.00,CLR,,0.00,694.0,WeatherDisplay:10.37,2013-09-19 18:49:00,
2013-09-19 14:54:00,73.5,55.3,30.05,South,181,1.1,2.3,53,0.00,CLR,,0.00,687.0,WeatherDisplay:10.37,2013-09-19 18:54:00,
2013-09-19 14:59:00,73.7,58.0,30.05,WSW,254,1.4,2.3,58,0.00,CLR,,0.00,679.0,WeatherDisplay:10.37,2013-09-19 18:59:00,
2013-09-19 15:04:00,73.5,55.8,30.05,NW,306,3.3,4.6,54,0.00,CLR,,0.00,671.0,WeatherDisplay:10.37,2013-09-19 19:04:00,
2013-09-19 15:15:00,73.4,54.7,30.05,WNW,294,0.0,3.0,52,0.00,CLR,,0.00,647.0,WeatherDisplay:10.37,2013-09-19 19:15:00,
2013-09-19 15:20:00,74.0,58.8,30.04,WSW,240,0.0,1.0,59,0.00,CLR,,0.00,638.0,WeatherDisplay:10.37,2013-09-19 19:20:00,
2013-09-19 15:25:00,74.1,57.4,30.04,SW,214,1.0,3.0,56,0.00,CLR,,0.00,628.0,WeatherDisplay:10.37,2013-09-19 19:25:00,
2013-09-19 15:30:00,74.4,57.2,30.04,WNW,297,0.3,3.5,55,0.00,CLR,,0.00,615.0,WeatherDisplay:10.37,2013-09-19 19:30:00,
2013-09-19 15:37:00,74.4,55.1,30.03,West,279,0.2,3.5,51,0.00,CLR,,0.00,599.0,WeatherDisplay:10.37,2013-09-19 19:37:00,
2013-09-19 15:42:00,74.2,58.0,30.03,NNW,332,0.1,3.5,57,0.00,CLR,,0.00,587.0,WeatherDisplay:10.37,2013-09-19 19:42:00,
2013-09-19 15:47:00,74.7,56.4,30.03,ESE,122,1.0,2.3,53,0.00,CLR,,0.00,575.0,WeatherDisplay:10.37,2013-09-19 19:47:00,
2013-09-19 15:53:00,74.7,57.5,30.03,NW,305,0.6,5.0,55,0.00,CLR,,0.00,559.0,WeatherDisplay:10.37,2013-09-19 19:53:00,
2013-09-19 15:58:00,74.8,58.1,30.03,WNW,296,0.1,2.3,56,0.00,CLR,,0.00,545.0,WeatherDisplay:10.37,2013-09-19 19:58:00,
2013-09-19 16:03:00,74.5,55.2,30.03,WNW,290,1.1,2.3,51,0.00,CLR,,0.00,531.0,WeatherDisplay:10.37,2013-09-19 20:03:00,
2013-09-19 16:08:00,74.6,56.9,30.03,WNW,290,0.3,1.0,54,0.00,CLR,,0.00,519.0,WeatherDisplay:10.37,2013-09-19 20:08:00,
2013-09-19 16:13:00,74.8,57.5,30.03,WNW,290,0.1,1.0,55,0.00,CLR,,0.00,506.0,WeatherDisplay:10.37,2013-09-19 20:13:00,
2013-09-19 16:18:00,74.6,56.3,30.03,WNW,300,0.2,1.0,53,0.00,CLR,,0.00,492.0,WeatherDisplay:10.37,2013-09-19 20:18:00,
2013-09-19 16:23:00,74.5,59.2,30.03,NNW,342,1.4,2.3,59,0.00,CLR,,0.00,478.0,WeatherDisplay:10.37,2013-09-19 20:23:00,
2013-09-19 16:28:00,74.4,56.2,30.02,ENE,61,0.0,1.0,53,0.00,CLR,,0.00,462.0,WeatherDisplay:10.37,2013-09-19 20:28:00,
2013-09-19 16:33:00,74.8,56.0,30.03,East,99,0.0,0.0,52,0.00,CLR,,0.00,448.0,WeatherDisplay:10.37,2013-09-19 20:33:00,
2013-09-19 16:38:00,74.7,55.9,30.03,ESE,107,0.2,1.2,52,0.00,CLR,,0.00,434.0,WeatherDisplay:10.37,2013-09-19 20:38:00,
2013-09-19 16:43:00,74.8,58.1,30.02,ESE,107,0.0,0.0,56,0.00,CLR,,0.00,420.0,WeatherDisplay:10.37,2013-09-19 20:43:00,
2013-09-19 16:48:00,74.6,56.9,30.02,ESE,107,0.2,1.2,54,0.00,CLR,,0.00,406.0,WeatherDisplay:10.37,2013-09-19 20:48:00,
2013-09-19 16:53:00,74.8,53.8,30.03,NNW,342,1.4,3.0,48,0.00,CLR,,0.00,390.0,WeatherDisplay:10.37,2013-09-19 20:53:00,
2013-09-19 16:58:00,74.9,59.1,30.03,NNW,342,0.0,0.0,58,0.00,CLR,,0.00,376.0,WeatherDisplay:10.37,2013-09-19 20:58:00,
2013-09-19 17:03:00,74.8,57.0,30.02,NNW,341,0.0,1.2,54,0.00,CLR,,0.00,360.0,WeatherDisplay:10.37,2013-09-19 21:03:00,
2013-09-19 17:08:00,74.8,56.5,30.02,WNW,297,0.0,0.0,53,0.00,CLR,,0.00,345.0,WeatherDisplay:10.37,2013-09-19 21:08:00,
2013-09-19 17:13:00,74.9,53.3,30.02,WNW,297,0.8,2.0,47,0.00,CLR,,0.00,329.0,WeatherDisplay:10.37,2013-09-19 21:13:00,
2013-09-19 17:18:00,74.8,57.0,30.02,WNW,297,0.0,1.2,54,0.00,CLR,,0.00,311.0,WeatherDisplay:10.37,2013-09-19 21:18:00,
2013-09-19 17:23:00,73.9,59.6,30.02,WNW,296,0.0,0.0,61,0.00,CLR,,0.00,294.0,WeatherDisplay:10.37,2013-09-19 21:23:00,
2013-09-19 17:28:00,73.8,57.1,30.03,WNW,298,0.0,0.0,56,0.00,CLR,,0.00,278.0,WeatherDisplay:10.37,2013-09-19 21:28:00,
2013-09-19 17:33:00,73.3,58.6,30.03,WNW,298,0.0,0.0,60,0.00,CLR,,0.00,262.0,WeatherDisplay:10.37,2013-09-19 21:33:00,
2013-09-19 17:38:00,73.0,59.7,30.02,WNW,298,0.0,0.0,63,0.00,CLR,,0.00,169.0,WeatherDisplay:10.37,2013-09-19 21:38:00,
2013-09-19 17:43:00,72.9,57.7,30.03,WNW,298,0.0,0.0,59,0.00,SCT,,0.00,76.0,WeatherDisplay:10.37,2013-09-19 21:43:00,
2013-09-19 17:48:00,72.6,59.3,30.03,WNW,298,0.0,0.0,63,0.00,BKN,,0.00,33.0,WeatherDisplay:10.37,2013-09-19 21:48:00,
2013-09-19 17:53:00,72.3,58.5,30.03,WNW,298,0.3,2.3,62,0.00,BKN,,0.00,33.0,WeatherDisplay:10.37,2013-09-19 21:53:00,
2013-09-19 17:58:00,72.1,61.4,30.03,WNW,298,0.0,0.0,69,0.00,BKN,,0.00,35.0,WeatherDisplay:10.37,2013-09-19 21:58:00,
2013-09-19 18:03:00,71.9,60.8,30.03,WNW,298,0.0,0.0,68,0.00,BKN,,0.00,30.0,WeatherDisplay:10.37,2013-09-19 22:03:00,
2013-09-19 18:08:00,71.5,60.4,30.03,WNW,298,0.0,0.0,68,0.00,BKN,,0.00,37.0,WeatherDisplay:10.37,2013-09-19 22:08:00,
2013-09-19 18:13:00,71.0,59.1,30.03,WNW,298,0.0,0.0,66,0.00,BKN,,0.00,39.0,WeatherDisplay:10.37,2013-09-19 22:13:00,
2013-09-19 18:18:00,71.0,60.3,30.03,WNW,298,0.0,0.0,69,0.00,BKN,,0.00,28.0,WeatherDisplay:10.37,2013-09-19 22:18:00,
2013-09-19 18:23:00,70.5,59.8,30.03,WNW,298,0.0,0.0,69,0.00,SCT,,0.00,77.0,WeatherDisplay:10.37,2013-09-19 22:23:00,
2013-09-19 18:28:00,69.9,59.3,30.03,WNW,298,0.0,0.0,69,0.00,BKN,,0.00,62.0,WeatherDisplay:10.37,2013-09-19 22:28:00,
2013-09-19 18:33:00,69.2,58.6,30.03,WNW,298,0.0,1.2,69,0.00,BKN,,0.00,37.0,WeatherDisplay:10.37,2013-09-19 22:33:00,
2013-09-19 18:38:00,68.6,58.0,30.03,WNW,298,0.0,0.0,69,0.00,BKN,,0.00,35.0,WeatherDisplay:10.37,2013-09-19 22:38:00,
2013-09-19 18:43:00,67.8,58.8,30.03,WNW,298,0.0,0.0,73,0.00,BKN,,0.00,25.0,WeatherDisplay:10.37,2013-09-19 22:43:00,
2013-09-19 18:48:00,67.5,56.6,30.03,WNW,298,0.0,0.0,68,0.00,BKN,,0.00,12.0,WeatherDisplay:10.37,2013-09-19 22:48:00,
2013-09-19 18:53:00,66.2,56.5,30.03,WNW,298,0.0,0.0,71,0.00,BKN,,0.00,11.0,WeatherDisplay:10.37,2013-09-19 22:53:00,
2013-09-19 18:58:00,65.0,56.5,30.03,WNW,298,0.2,1.2,74,0.00,BKN,,0.00,7.0,WeatherDisplay:10.37,2013-09-19 22:58:00,
2013-09-19 19:03:00,63.9,55.8,30.03,NE,42,0.6,1.2,75,0.00,BKN,,0.00,0.0,WeatherDisplay:10.37,2013-09-19 23:03:00,
2013-09-19 19:08:00,63.0,55.7,30.03,NE,52,0.8,1.2,77,0.00,OVC,,0.00,0.0,WeatherDisplay:10.37,2013-09-19 23:08:00,
2013-09-19 19:13:00,62.0,55.8,30.03,NE,52,0.5,1.2,80,0.00,OVC,,0.00,0.0,WeatherDisplay:10.37,2013-09-19 23:13:00,
2013-09-19 19:18:00,61.6,55.7,30.03,NE,52,0.1,1.2,81,0.00,OVC,,0.00,0.0,WeatherDisplay:10.37,2013-09-19 23:18:00,
2013-09-19 19:23:00,61.2,55.3,30.04,NE,52,0.7,1.2,81,0.00,OVC,,0.00,0.0,WeatherDisplay:10.37,2013-09-19 23:23:00,
2013-09-19 19:28:00,60.7,55.2,30.03,ENE,61,1.0,2.3,82,0.00,OVC,,0.00,0.0,WeatherDisplay:10.37,2013-09-19 23:28:00,
2013-09-19 19:33:00,60.5,54.6,30.04,East,92,0.2,2.3,81,0.00,OVC,,0.00,0.0,WeatherDisplay:10.37,2013-09-19 23:33:00,
2013-09-19 19:38:00,60.5,54.3,30.04,ESE,108,0.6,3.5,80,0.00,CLR,,0.00,0.0,WeatherDisplay:10.37,2013-09-19 23:38:00,
2013-09-19 19:43:00,60.9,53.6,30.04,ESE,119,0.2,1.0,77,0.00,CLR,,0.00,0.0,WeatherDisplay:10.37,2013-09-19 23:43:00,
2013-09-19 19:48:00,61.1,53.8,30.04,ESE,119,0.0,0.0,77,0.00,CLR,,0.00,0.0,WeatherDisplay:10.37,2013-09-19 23:48:00,
2013-09-19 19:54:00,61.1,53.5,30.05,ESE,119,0.0,0.0,76,0.00,CLR,,0.00,0.0,WeatherDisplay:10.37,2013-09-19 23:54:00,
2013-09-19 19:59:00,60.2,53.0,30.05,ESE,119,0.0,0.0,77,0.00,CLR,,0.00,0.0,WeatherDisplay:10.37,2013-09-19 23:59:00,
2013-09-19 20:04:00,59.4,53.2,30.05,ESE,119,0.0,0.0,80,0.00,CLR,,0.00,0.0,WeatherDisplay:10.37,2013-09-20 00:04:00,
2013-09-19 20:09:00,59.5,53.0,30.05,ESE,119,0.1,1.0,79,0.00,CLR,,0.00,0.0,WeatherDisplay:10.37,2013-09-20 00:09:00,
2013-09-19 20:14:00,58.9,52.7,30.05,ESE,119,0.0,1.2,80,0.00,CLR,,0.00,0.0,WeatherDisplay:10.37,2013-09-20 00:14:00,
2013-09-19 20:19:00,59.0,52.5,30.04,ESE,111,0.5,2.3,79,0.00,CLR,,0.00,0.0,WeatherDisplay:10.37,2013-09-20 00:19:00,
2013-09-19 20:24:00,59.7,52.1,30.05,ESE,106,0.9,2.3,76,0.00,CLR,,0.00,0.0,WeatherDisplay:10.37,2013-09-20 00:24:00,
2013-09-19 20:29:00,60.0,52.1,30.05,ESE,108,0.4,1.2,75,0.00,CLR,,0.00,0.0,WeatherDisplay:10.37,2013-09-20 00:29:00,
2013-09-19 20:34:00,60.8,51.7,30.05,ESE,114,0.5,1.2,72,0.00,CLR,,0.00,0.0,WeatherDisplay:10.37,2013-09-20 00:34:00,
2013-09-19 20:39:00,61.5,51.6,30.05,SE,136,0.2,1.2,70,0.00,CLR,,0.00,0.0,WeatherDisplay:10.37,2013-09-20 00:39:00,
2013-09-19 20:44:00,61.6,51.3,30.05,East,101,0.6,2.3,69,0.00,CLR,,0.00,0.0,WeatherDisplay:10.37,2013-09-20 00:44:00,
2013-09-19 20:49:00,61.4,51.1,30.05,SE,135,0.1,1.2,69,0.00,CLR,,0.00,0.0,WeatherDisplay:10.37,2013-09-20 00:49:00,
2013-09-19 20:54:00,60.8,51.0,30.05,SE,136,0.0,2.3,70,0.00,CLR,,0.00,0.0,WeatherDisplay:10.37,2013-09-20 00:54:00,
2013-09-19 20:59:00,60.5,51.0,30.05,SE,127,0.6,1.2,71,0.00,CLR,,0.00,0.0,WeatherDisplay:10.37,2013-09-20 00:59:00,
2013-09-19 21:04:00,60.1,51.0,30.05,ESE,106,1.2,2.3,72,0.00,CLR,,0.00,0.0,WeatherDisplay:10.37,2013-09-20 01:04:00,
2013-09-19 21:09:00,59.9,50.8,30.04,ESE,104,0.4,2.3,72,0.00,CLR,,0.00,0.0,WeatherDisplay:10.37,2013-09-20 01:09:00,
2013-09-19 21:14:00,60.2,50.8,30.05,ESE,104,0.2,1.2,71,0.00,CLR,,0.00,0.0,WeatherDisplay:10.37,2013-09-20 01:14:00,
2013-09-19 21:19:00,60.2,50.4,30.04,ESE,107,0.9,2.3,70,0.00,CLR,,0.00,0.0,WeatherDisplay:10.37,2013-09-20 01:19:00,
2013-09-19 21:24:00,60.3,50.5,30.04,ESE,117,0.6,2.3,70,0.00,CLR,,0.00,0.0,WeatherDisplay:10.37,2013-09-20 01:24:00,
2013-09-19 21:29:00,60.0,50.2,30.04,ESE,105,0.8,3.5,70,0.00,CLR,,0.00,0.0,WeatherDisplay:10.37,2013-09-20 01:29:00,
2013-09-19 21:34:00,60.0,50.2,30.04,SE,136,0.8,3.5,70,0.00,CLR,,0.00,0.0,WeatherDisplay:10.37,2013-09-20 01:34:00,
2013-09-19 21:39:00,60.7,50.5,30.04,SE,126,1.4,3.5,69,0.00,CLR,,0.00,0.0,WeatherDisplay:10.37,2013-09-20 01:39:00,
2013-09-19 21:44:00,60.6,50.8,30.04,ESE,111,1.0,3.5,70,0.00,CLR,,0.00,0.0,WeatherDisplay:10.37,2013-09-20 01:44:00,
2013-09-19 21:49:00,60.4,50.6,30.04,ESE,120,1.3,2.3,70,0.00,CLR,,0.00,0.0,WeatherDisplay:10.37,2013-09-20 01:49:00,
2013-09-19 21:54:00,60.4,50.6,30.04,ESE,111,1.3,3.5,70,0.00,CLR,,0.00,0.0,WeatherDisplay:10.37,2013-09-20 01:54:00,
2013-09-19 21:59:00,60.6,50.4,30.04,ESE,108,0.6,1.2,69,0.00,CLR,,0.00,0.0,WeatherDisplay:10.37,2013-09-20 01:59:00,
2013-09-19 22:04:00,60.5,50.7,30.04,ESE,114,0.5,1.2,70,0.00,CLR,,0.00,0.0,WeatherDisplay:10.37,2013-09-20 02:04:00,
2013-09-19 22:09:00,60.1,51.0,30.05,ESE,114,0.3,1.2,72,0.00,CLR,,0.00,0.0,WeatherDisplay:10.37,2013-09-20 02:09:00,
2013-09-19 22:14:00,59.2,50.5,30.05,ESE,114,0.3,1.2,73,0.00,CLR,,0.00,0.0,WeatherDisplay:10.37,2013-09-20 02:14:00,
2013-09-19 22:19:00,58.9,50.6,30.05,ESE,114,0.0,0.0,74,0.00,CLR,,0.00,0.0,WeatherDisplay:10.37,2013-09-20 02:19:00,
2013-09-19 22:24:00,58.2,50.7,30.05,ESE,114,0.0,0.0,76,0.00,CLR,,0.00,0.0,WeatherDisplay:10.37,2013-09-20 02:24:00,
2013-09-19 22:29:00,57.3,50.8,30.05,ESE,114,0.0,0.0,79,0.00,CLR,,0.00,0.0,WeatherDisplay:10.37,2013-09-20 02:29:00,
2013-09-19 22:34:00,56.4,50.6,30.05,ESE,114,0.0,0.0,81,0.00,CLR,,0.00,0.0,WeatherDisplay:10.37,2013-09-20 02:34:00,
2013-09-19 22:39:00,56.2,50.4,30.05,ESE,114,0.0,0.0,81,0.00,CLR,,0.00,0.0,WeatherDisplay:10.37,2013-09-20 02:39:00,
2013-09-19 22:44:00,57.1,50.3,30.04,ESE,114,0.1,1.2,78,0.00,CLR,,0.00,0.0,WeatherDisplay:10.37,2013-09-20 02:44:00,
2013-09-19 22:49:00,57.6,50.4,30.04,ESE,114,0.1,2.3,77,0.00,CLR,,0.00,0.0,WeatherDisplay:10.37,2013-09-20 02:49:00,
2013-09-19 22:54:00,57.6,50.4,30.04,ESE,114,0.0,0.0,77,0.00,CLR,,0.00,0.0,WeatherDisplay:10.37,2013-09-20 02:54:00,
2013-09-19 22:59:00,57.3,50.5,30.04,ESE,114,0.0,0.0,78,0.00,CLR,,0.00,0.0,WeatherDisplay:10.37,2013-09-20 02:59:00,
2013-09-19 23:04:00,56.9,50.5,30.04,ESE,114,0.0,0.0,79,0.00,CLR,,0.00,0.0,WeatherDisplay:10.37,2013-09-20 03:04:00,
2013-09-19 23:09:00,56.0,50.6,30.04,ESE,114,0.1,1.0,82,0.00,CLR,,0.00,0.0,WeatherDisplay:10.37,2013-09-20 03:09:00,
2013-09-19 23:14:00,55.8,50.7,30.04,ESE,114,0.0,0.0,83,0.00,CLR,,0.00,0.0,WeatherDisplay:10.37,2013-09-20 03:14:00,
2013-09-19 23:19:00,55.7,50.6,30.04,ESE,114,0.0,0.0,83,0.00,CLR,,0.00,0.0,WeatherDisplay:10.37,2013-09-20 03:19:00,
2013-09-19 23:24:00,55.2,50.4,30.03,ESE,114,0.0,0.0,84,0.00,CLR,,0.00,0.0,WeatherDisplay:10.37,2013-09-20 03:24:00,
2013-09-19 23:29:00,54.7,50.6,30.03,ESE,114,0.0,1.2,86,0.00,CLR,,0.00,0.0,WeatherDisplay:10.37,2013-09-20 03:29:00,
2013-09-19 23:34:00,54.4,50.6,30.03,ESE,114,0.0,0.0,87,0.00,CLR,,0.00,0.0,WeatherDisplay:10.37,2013-09-20 03:34:00,
2013-09-19 23:39:00,55.0,50.9,30.04,ESE,114,0.0,0.0,86,0.00,CLR,,0.00,0.0,WeatherDisplay:10.37,2013-09-20 03:39:00,
2013-09-19 23:44:00,55.4,51.0,30.04,ESE,114,0.0,0.0,85,0.00,CLR,,0.00,0.0,WeatherDisplay:10.37,2013-09-20 03:44:00,
2013-09-19 23:49:00,55.6,50.8,30.04,ESE,114,0.0,0.0,84,0.00,CLR,,0.00,0.0,WeatherDisplay:10.37,2013-09-20 03:49:00,
2013-09-19 23:54:00,55.2,50.4,30.04,ESE,114,0.0,1.0,84,0.00,CLR,,0.00,0.0,WeatherDisplay:10.37,2013-09-20 03:54:00,
2013-09-19 23:59:00,54.3,50.2,30.04,ESE,114,0.0,0.0,86,0.00,CLR,,0.00,0.0,WeatherDisplay:10.37,2013-09-20 03:59:00,